Time;durP1;ratioP1;P1;durP2;ratioP2;P2;SDS_P1;SDS_P2;PMS_P1;PMS_P2;Temp;Humidity;BMP_temperature;BMP_pressure;BME280_temperature;BME280_humidity;BME280_pressure;Samples;Min_cycle;Max_cycle;Signal;HPM_P1;HPM_P2
2021/05/02 00:01:44;;;;;;;3.30;3.10;;;21.60;44.40;;;;;;4997613;28;20471;-70
2021/05/02 00:04:10;;;;;;;2.60;2.50;;;21.60;44.60;;;;;;5013495;28;20409;-70
2021/05/02 00:06:36;;;;;;;3.45;3.25;;;21.60;44.60;;;;;;4995451;28;20969;-70
2021/05/02 00:09:03;;;;;;;2.70;2.60;;;21.60;44.60;;;;;;5006937;28;20425;-70
2021/05/02 00:11:30;;;;;;;3.05;2.85;;;21.60;44.60;;;;;;4994628;28;20420;-69
2021/05/02 00:13:56;;;;;;;3.08;2.97;;;21.60;44.60;;;;;;5003468;28;20409;-70
2021/05/02 00:16:22;;;;;;;3.40;2.90;;;21.60;44.60;;;;;;5002273;28;20415;-70
2021/05/02 00:18:49;;;;;;;2.60;2.50;;;21.60;44.40;;;;;;5008297;28;20415;-69
2021/05/02 00:21:15;;;;;;;3.20;3.00;;;21.60;44.50;;;;;;5008279;28;20407;-70
2021/05/02 00:23:41;;;;;;;3.17;2.97;;;21.60;44.40;;;;;;4977882;28;20503;-70
2021/05/02 00:26:08;;;;;;;2.67;2.58;;;21.60;44.40;;;;;;5008910;28;20413;-70
2021/05/02 00:28:35;;;;;;;2.90;2.70;;;21.60;44.30;;;;;;5004538;28;20420;-70
2021/05/02 00:31:04;;;;;;;3.10;2.70;;;21.60;44.50;;;;;;5004779;28;20423;-69
2021/05/02 00:33:30;;;;;;;2.60;2.50;;;21.60;44.40;;;;;;5001606;28;21558;-70
2021/05/02 00:35:56;;;;;;;3.00;2.80;;;21.60;44.40;;;;;;5006590;28;20928;-70
2021/05/02 00:38:22;;;;;;;2.45;2.35;;;21.60;44.30;;;;;;5003844;28;20795;-70
2021/05/02 00:40:53;;;;;;;2.90;2.80;;;21.60;44.60;;;;;;5006542;28;20945;-70
2021/05/02 00:43:24;;;;;;;2.80;2.70;;;21.60;44.40;;;;;;4983998;28;20456;-70
2021/05/02 00:45:54;;;;;;;3.13;2.93;;;21.60;44.40;;;;;;4994453;28;20451;-69
2021/05/02 00:48:21;;;;;;;2.88;2.78;;;21.60;44.40;;;;;;4997019;28;20419;-70
2021/05/02 00:50:54;;;;;;;2.90;2.80;;;21.60;44.50;;;;;;5005208;28;21110;-70
2021/05/02 00:53:34;;;;;;;2.73;2.63;;;21.60;44.60;;;;;;4973031;28;20467;-70
2021/05/02 00:56:00;;;;;;;2.42;2.33;;;21.60;44.40;;;;;;5005506;28;20409;-70
2021/05/02 00:58:36;;;;;;;3.22;3.03;;;21.60;44.30;;;;;;4999243;28;20435;-69
2021/05/02 01:01:03;;;;;;;2.80;2.70;;;21.60;44.30;;;;;;5001784;28;20936;-69
2021/05/02 01:03:32;;;;;;;2.70;2.50;;;21.60;45.10;;;;;;5002383;28;20424;-69
2021/05/02 01:05:59;;;;;;;2.60;2.50;;;21.60;44.40;;;;;;5004716;28;20520;-69
2021/05/02 01:08:25;;;;;;;2.90;2.70;;;21.60;44.30;;;;;;5002808;28;20416;-69
2021/05/02 01:10:52;;;;;;;2.83;2.63;;;21.60;44.40;;;;;;5008411;28;20635;-69
2021/05/02 01:13:18;;;;;;;2.87;2.77;;;21.60;44.50;;;;;;5001120;28;20530;-67
2021/05/02 01:15:45;;;;;;;3.10;2.90;;;21.60;44.50;;;;;;4984721;28;20421;-69
2021/05/02 01:18:12;;;;;;;2.57;2.47;;;21.60;44.60;;;;;;4994170;28;20451;-69
2021/05/02 01:20:41;;;;;;;2.40;2.30;;;21.50;44.40;;;;;;5004386;28;20419;-68
2021/05/02 01:23:13;;;;;;;2.80;2.70;;;21.60;44.40;;;;;;4996011;28;20485;-68
2021/05/02 01:25:39;;;;;;;3.25;3.10;;;21.60;44.40;;;;;;5006227;28;20481;-69
2021/05/02 01:28:05;;;;;;;3.03;2.92;;;21.60;44.40;;;;;;4999112;28;20512;-69
2021/05/02 01:30:32;;;;;;;2.90;2.80;;;21.60;44.30;;;;;;5005721;28;20421;-69
2021/05/02 01:32:58;;;;;;;2.70;2.60;;;21.60;44.30;;;;;;4995545;28;21647;-69
2021/05/02 01:35:24;;;;;;;2.67;2.58;;;21.60;44.40;;;;;;5003536;28;20424;-69
2021/05/02 01:37:51;;;;;;;2.58;2.38;;;21.60;44.20;;;;;;5003918;28;20410;-70
2021/05/02 01:40:18;;;;;;;2.57;2.40;;;21.60;44.30;;;;;;4998050;28;20426;-69
2021/05/02 01:42:44;;;;;;;2.25;2.15;;;21.60;44.30;;;;;;4985198;28;20412;-70
2021/05/02 01:45:11;;;;;;;2.72;2.63;;;21.60;44.40;;;;;;5009680;28;20450;-70
2021/05/02 01:47:41;;;;;;;2.40;2.30;;;21.60;44.30;;;;;;5000293;28;20415;-69
2021/05/02 01:50:09;;;;;;;2.50;2.40;;;21.70;44.30;;;;;;5008707;28;20409;-70
2021/05/02 01:52:35;;;;;;;2.40;2.30;;;21.70;44.30;;;;;;4995898;28;20414;-69
2021/05/02 01:55:02;;;;;;;2.70;2.50;;;21.60;44.20;;;;;;5008329;28;20483;-70
2021/05/02 01:57:30;;;;;;;4.70;2.30;;;21.70;44.30;;;;;;4993146;28;20418;-69
2021/05/02 01:59:57;;;;;;;2.60;2.50;;;21.70;44.30;;;;;;5012864;28;20413;-69
2021/05/02 02:02:24;;;;;;;2.50;2.40;;;21.70;44.20;;;;;;5003348;28;20416;-70
2021/05/02 02:04:52;;;;;;;2.50;2.40;;;21.60;44.30;;;;;;4996081;28;20422;-69
2021/05/02 02:07:18;;;;;;;2.17;2.08;;;21.60;45.10;;;;;;5007296;28;21208;-69
2021/05/02 02:09:45;;;;;;;2.75;2.65;;;21.60;44.30;;;;;;5002410;28;20429;-70
2021/05/02 02:12:11;;;;;;;2.70;2.60;;;21.60;45.10;;;;;;4987887;28;20447;-69
2021/05/02 02:14:38;;;;;;;2.50;2.40;;;21.60;44.50;;;;;;5002320;28;20432;-69
2021/05/02 02:17:04;;;;;;;2.70;2.60;;;21.50;44.30;;;;;;4992522;28;20524;-69
2021/05/02 02:19:30;;;;;;;2.97;2.88;;;21.50;44.30;;;;;;4990739;28;20428;-70
2021/05/02 02:21:57;;;;;;;2.77;2.67;;;21.50;44.30;;;;;;4992015;28;20419;-70
2021/05/02 02:24:32;;;;;;;3.10;2.90;;;21.50;44.30;;;;;;5010389;28;20530;-70
2021/05/02 02:26:59;;;;;;;2.63;2.53;;;21.50;44.30;;;;;;5000112;28;20520;-70
2021/05/02 02:29:25;;;;;;;2.88;2.67;;;21.50;44.30;;;;;;5004866;28;20901;-69
2021/05/02 02:31:52;;;;;;;2.53;2.42;;;21.50;44.40;;;;;;5001538;28;21686;-69
2021/05/02 02:34:18;;;;;;;2.30;2.20;;;21.60;44.40;;;;;;5002056;28;20931;-69
2021/05/02 02:36:44;;;;;;;2.40;2.30;;;21.60;44.30;;;;;;5000846;28;20421;-70
2021/05/02 02:39:10;;;;;;;2.92;2.83;;;21.60;44.20;;;;;;5004303;28;20434;-69
2021/05/02 02:41:38;;;;;;;2.38;2.28;;;21.60;44.10;;;;;;4999154;28;20417;-69
2021/05/02 02:44:06;;;;;;;3.00;2.80;;;21.60;44.10;;;;;;5000698;28;20452;-69
2021/05/02 02:46:32;;;;;;;2.40;2.30;;;21.60;44.20;;;;;;4998490;28;20436;-69
2021/05/02 02:48:59;;;;;;;2.45;2.35;;;21.70;44.30;;;;;;4996903;28;20788;-69
2021/05/02 02:51:26;;;;;;;2.63;2.53;;;21.70;44.30;;;;;;5003343;28;21006;-69
2021/05/02 02:53:52;;;;;;;2.80;2.60;;;21.70;44.20;;;;;;4994269;28;20548;-70
2021/05/02 02:56:19;;;;;;;2.50;2.40;;;21.60;44.00;;;;;;5008308;28;20414;-69
2021/05/02 02:58:49;;;;;;;2.35;2.25;;;21.60;44.20;;;;;;5004469;28;20854;-69
2021/05/02 03:01:15;;;;;;;2.40;2.30;;;21.60;44.20;;;;;;4999822;28;20436;-70
2021/05/02 03:03:45;;;;;;;2.40;2.30;;;21.50;44.20;;;;;;5006577;28;20427;-68
2021/05/02 03:06:12;;;;;;;2.30;2.20;;;21.60;44.20;;;;;;4996284;28;21136;-69
2021/05/02 03:08:39;;;;;;;2.30;2.20;;;21.50;44.30;;;;;;5007112;28;20413;-69
2021/05/02 03:11:05;;;;;;;2.78;2.67;;;21.50;44.20;;;;;;5008324;28;20428;-68
2021/05/02 03:13:31;;;;;;;2.57;2.47;;;21.50;44.30;;;;;;5005002;28;20478;-69
2021/05/02 03:15:59;;;;;;;2.60;2.50;;;21.50;44.30;;;;;;5004820;28;20656;-69
2021/05/02 03:18:26;;;;;;;2.60;2.50;;;21.50;44.20;;;;;;5005175;28;20416;-69
2021/05/02 03:20:56;;;;;;;2.97;2.87;;;21.50;44.20;;;;;;5008401;28;20453;-69
2021/05/02 03:23:30;;;;;;;2.70;2.60;;;21.50;44.20;;;;;;4990725;28;21027;-69
2021/05/02 03:25:58;;;;;;;2.40;2.30;;;21.50;44.20;;;;;;5016673;28;20940;-69
2021/05/02 03:28:33;;;;;;;2.33;2.20;;;21.50;44.10;;;;;;5008092;28;20953;-69
2021/05/02 03:31:00;;;;;;;2.40;2.30;;;21.60;44.20;;;;;;5006973;28;20409;-69
2021/05/02 03:33:26;;;;;;;2.47;2.38;;;21.60;44.10;;;;;;5000048;28;20419;-69
2021/05/02 03:35:52;;;;;;;2.10;2.00;;;21.60;44.20;;;;;;4999876;28;20419;-69
2021/05/02 03:38:22;;;;;;;2.40;2.30;;;21.60;44.10;;;;;;5000916;28;20426;-69
2021/05/02 03:40:49;;;;;;;2.60;2.50;;;21.50;44.20;;;;;;5010663;28;20409;-69
2021/05/02 03:43:15;;;;;;;2.63;2.53;;;21.50;44.00;;;;;;5000028;28;20490;-69
2021/05/02 03:45:42;;;;;;;2.47;2.38;;;21.50;44.20;;;;;;5007212;28;20397;-69
2021/05/02 03:48:08;;;;;;;2.47;2.38;;;21.50;44.20;;;;;;5007831;28;20478;-70
2021/05/02 03:50:35;;;;;;;3.05;2.85;;;21.50;44.10;;;;;;4999639;28;20415;-69
2021/05/02 03:53:01;;;;;;;2.97;2.78;;;21.50;44.20;;;;;;4997702;28;20429;-70
2021/05/02 03:55:27;;;;;;;2.40;2.30;;;21.50;44.20;;;;;;4989141;28;20423;-69
2021/05/02 03:57:54;;;;;;;2.22;2.13;;;21.50;44.20;;;;;;5005918;28;20417;-70
2021/05/02 04:00:20;;;;;;;2.10;2.00;;;21.50;44.20;;;;;;5003218;28;21043;-68
2021/05/02 04:02:46;;;;;;;2.47;2.38;;;21.50;44.20;;;;;;5006524;28;20414;-69
2021/05/02 04:05:13;;;;;;;2.60;2.50;;;21.50;44.20;;;;;;5005356;28;20410;-70
2021/05/02 04:07:39;;;;;;;2.50;2.40;;;21.50;44.20;;;;;;4998210;28;20481;-70
2021/05/02 04:10:06;;;;;;;2.40;2.30;;;21.50;44.10;;;;;;5015001;28;20418;-69
2021/05/02 04:12:32;;;;;;;2.33;2.22;;;21.50;44.20;;;;;;4993196;28;20642;-70
2021/05/02 04:14:59;;;;;;;2.35;2.25;;;21.50;44.20;;;;;;5017177;28;20801;-69
2021/05/02 04:17:25;;;;;;;2.40;2.30;;;21.50;44.10;;;;;;5004176;28;20482;-69
2021/05/02 04:19:52;;;;;;;2.70;2.60;;;21.50;44.00;;;;;;5006971;28;20419;-70
2021/05/02 04:22:18;;;;;;;2.28;2.17;;;21.60;44.10;;;;;;4993059;28;20560;-69
2021/05/02 04:24:45;;;;;;;2.40;2.30;;;21.60;44.10;;;;;;5008789;28;20403;-69
2021/05/02 04:27:11;;;;;;;2.10;2.00;;;21.60;44.10;;;;;;5001182;28;20436;-69
2021/05/02 04:29:37;;;;;;;2.53;2.42;;;21.60;44.00;;;;;;5004571;28;20488;-69
2021/05/02 04:32:05;;;;;;;3.00;2.90;;;21.50;44.10;;;;;;4992279;28;20853;-68
2021/05/02 04:34:31;;;;;;;2.92;2.72;;;21.60;44.20;;;;;;5011416;28;21139;-69
2021/05/02 04:36:58;;;;;;;2.60;2.50;;;21.60;44.00;;;;;;5012267;28;20440;-69
2021/05/02 04:39:24;;;;;;;2.70;2.60;;;21.50;43.90;;;;;;5007220;28;20415;-69
2021/05/02 04:41:51;;;;;;;2.70;2.60;;;21.60;44.00;;;;;;5003214;28;20414;-69
2021/05/02 04:44:17;;;;;;;2.50;2.40;;;21.50;43.80;;;;;;4999446;28;20418;-69
2021/05/02 04:46:43;;;;;;;2.60;2.50;;;21.60;44.00;;;;;;5011220;28;20425;-69
2021/05/02 04:49:10;;;;;;;2.50;2.40;;;21.60;44.00;;;;;;4992357;28;20417;-67
2021/05/02 04:51:36;;;;;;;2.35;2.25;;;21.60;44.00;;;;;;5005099;28;20965;-70
2021/05/02 04:54:03;;;;;;;2.42;2.33;;;21.50;43.90;;;;;;5001120;28;20421;-69
2021/05/02 04:56:29;;;;;;;2.70;2.60;;;21.60;44.10;;;;;;5004183;28;20439;-68
2021/05/02 04:58:55;;;;;;;2.40;2.30;;;21.50;43.90;;;;;;5003157;28;20913;-69
2021/05/02 05:01:22;;;;;;;2.72;2.60;;;21.50;44.00;;;;;;5005235;28;20415;-69
2021/05/02 05:03:48;;;;;;;2.50;2.40;;;21.50;44.10;;;;;;5003524;28;20420;-69
2021/05/02 05:06:15;;;;;;;2.22;2.13;;;21.50;44.20;;;;;;5006704;28;20415;-69
2021/05/02 05:08:41;;;;;;;2.30;2.20;;;21.50;44.10;;;;;;5003991;28;20430;-69
2021/05/02 05:11:07;;;;;;;2.40;2.30;;;21.50;44.20;;;;;;5007080;28;20428;-69
2021/05/02 05:13:34;;;;;;;2.10;2.00;;;21.50;44.10;;;;;;4997771;28;20431;-69
2021/05/02 05:16:00;;;;;;;2.05;1.95;;;21.50;44.20;;;;;;5010967;28;21499;-69
2021/05/02 05:18:27;;;;;;;2.20;2.10;;;21.50;44.10;;;;;;5004399;28;20844;-70
2021/05/02 05:20:53;;;;;;;2.60;2.50;;;21.60;44.00;;;;;;5006495;28;20414;-69
2021/05/02 05:23:20;;;;;;;2.10;2.00;;;21.60;43.90;;;;;;4998319;28;21387;-69
2021/05/02 05:25:46;;;;;;;2.55;2.35;;;21.60;43.80;;;;;;5006114;28;20807;-69
2021/05/02 05:28:13;;;;;;;2.10;2.00;;;21.60;43.80;;;;;;5002786;28;20812;-69
2021/05/02 05:30:39;;;;;;;2.30;2.20;;;21.60;43.70;;;;;;5004627;28;21174;-69
2021/05/02 05:33:06;;;;;;;2.30;2.20;;;21.60;43.80;;;;;;5001785;28;20659;-69
2021/05/02 05:35:32;;;;;;;2.58;2.42;;;21.60;43.80;;;;;;5003673;28;20470;-69
2021/05/02 05:37:58;;;;;;;2.40;2.30;;;21.60;43.90;;;;;;5004191;28;20429;-69
2021/05/02 05:40:25;;;;;;;2.10;2.00;;;21.60;44.00;;;;;;5005746;28;20411;-69
2021/05/02 05:42:51;;;;;;;2.30;2.20;;;21.60;43.90;;;;;;4998141;28;20425;-69
2021/05/02 05:45:19;;;;;;;2.35;2.25;;;21.60;44.00;;;;;;5006803;28;20453;-69
2021/05/02 05:47:45;;;;;;;2.58;2.47;;;21.60;43.90;;;;;;5004345;28;20564;-69
2021/05/02 05:50:14;;;;;;;2.77;2.20;;;21.60;44.00;;;;;;5005289;28;21045;-70
2021/05/02 05:52:40;;;;;;;2.50;2.30;;;21.60;44.00;;;;;;5002513;28;20419;-69
2021/05/02 05:55:07;;;;;;;2.65;2.45;;;21.60;43.90;;;;;;5003972;28;20793;-69
2021/05/02 05:57:34;;;;;;;2.70;2.60;;;21.60;43.90;;;;;;4997465;28;20528;-69
2021/05/02 06:00:00;;;;;;;2.15;2.05;;;21.60;43.90;;;;;;5009626;28;21412;-69
2021/05/02 06:02:26;;;;;;;2.13;2.03;;;21.70;43.90;;;;;;5002089;28;20424;-70
2021/05/02 06:04:52;;;;;;;2.03;1.92;;;21.60;43.80;;;;;;5003709;28;20418;-69
2021/05/02 06:07:19;;;;;;;2.20;2.10;;;21.70;43.80;;;;;;5000288;28;20427;-70
2021/05/02 06:09:45;;;;;;;2.10;2.00;;;21.70;43.70;;;;;;5005150;28;20414;-69
2021/05/02 06:12:11;;;;;;;2.03;1.92;;;21.70;43.70;;;;;;4994380;28;20424;-69
2021/05/02 06:14:39;;;;;;;2.38;2.28;;;21.70;43.60;;;;;;5004626;28;21776;-69
2021/05/02 06:17:05;;;;;;;2.10;2.00;;;21.70;43.50;;;;;;4972860;28;20503;-69
2021/05/02 06:19:31;;;;;;;2.20;2.10;;;21.70;43.50;;;;;;4996906;28;20558;-69
2021/05/02 06:21:58;;;;;;;2.20;2.10;;;21.70;43.60;;;;;;5003875;28;20537;-70
2021/05/02 06:24:24;;;;;;;1.92;1.90;;;21.70;43.60;;;;;;5003446;28;20419;-69
2021/05/02 06:26:50;;;;;;;2.10;2.00;;;21.70;43.60;;;;;;5001030;28;20449;-70
2021/05/02 06:29:16;;;;;;;2.15;2.05;;;21.70;43.60;;;;;;5006223;28;20411;-70
2021/05/02 06:31:43;;;;;;;2.28;2.00;;;21.70;43.70;;;;;;4990366;28;20528;-69
2021/05/02 06:34:09;;;;;;;2.40;2.30;;;21.70;43.70;;;;;;5003518;28;20418;-69
2021/05/02 06:36:35;;;;;;;2.50;2.40;;;21.70;43.60;;;;;;4999166;28;20409;-68
2021/05/02 06:39:02;;;;;;;2.00;1.90;;;21.80;43.70;;;;;;5006332;28;20867;-69
2021/05/02 06:41:28;;;;;;;2.10;2.00;;;21.80;43.70;;;;;;5009336;28;20928;-69
2021/05/02 06:43:54;;;;;;;1.98;1.88;;;21.80;43.50;;;;;;5009427;28;20456;-69
2021/05/02 06:46:30;;;;;;;2.20;2.10;;;21.80;43.40;;;;;;5005492;28;20411;-69
2021/05/02 06:48:58;;;;;;;1.70;1.60;;;21.80;43.40;;;;;;5008287;28;20854;-69
2021/05/02 06:51:24;;;;;;;2.10;2.00;;;21.80;43.40;;;;;;5005413;28;20887;-69
2021/05/02 06:53:50;;;;;;;1.83;1.73;;;21.80;43.40;;;;;;5001095;28;20411;-69
2021/05/02 06:56:16;;;;;;;2.30;2.10;;;21.80;43.40;;;;;;5007615;28;20422;-69
2021/05/02 06:58:42;;;;;;;2.00;1.90;;;21.80;43.50;;;;;;5007735;28;20411;-70
2021/05/02 07:01:09;;;;;;;1.92;1.90;;;21.80;43.50;;;;;;5008863;28;20445;-69
2021/05/02 07:03:35;;;;;;;2.05;1.95;;;21.80;43.50;;;;;;5006282;28;21216;-69
2021/05/02 07:06:03;;;;;;;1.90;1.80;;;21.80;43.50;;;;;;4983915;28;20866;-69
2021/05/02 07:08:29;;;;;;;2.07;1.97;;;21.80;43.50;;;;;;5016409;28;20419;-69
2021/05/02 07:10:55;;;;;;;2.28;2.17;;;21.80;43.50;;;;;;5008395;28;20786;-69
2021/05/02 07:13:22;;;;;;;1.77;1.73;;;21.80;43.50;;;;;;5005882;28;20934;-70
2021/05/02 07:15:48;;;;;;;1.90;1.80;;;21.90;43.50;;;;;;5000392;28;20928;-69
2021/05/02 07:18:14;;;;;;;1.63;1.58;;;21.90;43.50;;;;;;5007333;28;20422;-69
2021/05/02 07:20:40;;;;;;;2.08;1.98;;;21.90;43.50;;;;;;5007209;28;20422;-69
2021/05/02 07:23:07;;;;;;;1.87;1.77;;;21.90;43.60;;;;;;4998206;28;20435;-69
2021/05/02 07:25:34;;;;;;;1.60;1.50;;;21.80;43.50;;;;;;5012883;28;20460;-69
2021/05/02 07:28:00;;;;;;;2.00;1.90;;;21.80;43.70;;;;;;5004560;28;20412;-68
2021/05/02 07:30:26;;;;;;;2.00;1.90;;;21.80;43.70;;;;;;4999977;28;20434;-69
2021/05/02 07:32:53;;;;;;;2.10;1.83;;;21.80;43.70;;;;;;5005927;28;20421;-70
2021/05/02 07:35:19;;;;;;;1.90;1.80;;;21.80;43.70;;;;;;5005504;28;21487;-69
2021/05/02 07:37:45;;;;;;;2.10;2.00;;;21.70;43.70;;;;;;5002406;28;20419;-69
2021/05/02 07:40:13;;;;;;;1.80;1.80;;;21.70;43.70;;;;;;4998908;28;20422;-70
2021/05/02 07:42:39;;;;;;;1.90;1.80;;;21.70;43.80;;;;;;5004048;28;20409;-69
2021/05/02 07:45:06;;;;;;;2.05;1.95;;;21.70;43.80;;;;;;5005147;28;20421;-69
2021/05/02 07:47:33;;;;;;;1.90;1.80;;;21.70;43.90;;;;;;5003793;28;20428;-69
2021/05/02 07:49:59;;;;;;;2.03;2.00;;;21.70;43.90;;;;;;5006911;28;20443;-69
2021/05/02 07:52:25;;;;;;;1.50;1.50;;;21.70;43.90;;;;;;5001862;28;20448;-68
2021/05/02 07:54:51;;;;;;;2.08;1.98;;;21.70;43.80;;;;;;5002552;28;20419;-69
2021/05/02 07:57:18;;;;;;;2.40;2.10;;;21.70;43.80;;;;;;5005576;28;20797;-69
2021/05/02 07:59:44;;;;;;;1.70;1.60;;;21.70;43.70;;;;;;5007732;28;20410;-69
2021/05/02 08:02:10;;;;;;;1.70;1.70;;;21.70;43.80;;;;;;5005204;28;20412;-70
2021/05/02 08:04:38;;;;;;;1.50;1.50;;;21.70;43.70;;;;;;5005916;28;20407;-69
2021/05/02 08:07:04;;;;;;;1.80;1.70;;;21.70;43.70;;;;;;5005879;28;21006;-69
2021/05/02 08:09:30;;;;;;;2.10;2.00;;;21.80;43.70;;;;;;5007124;28;21487;-69
2021/05/02 08:11:57;;;;;;;1.60;1.50;;;21.70;43.70;;;;;;5001187;28;20437;-69
2021/05/02 08:14:23;;;;;;;1.70;1.60;;;21.70;43.70;;;;;;4995111;28;20421;-69
2021/05/02 08:16:50;;;;;;;1.42;1.42;;;21.70;43.70;;;;;;4994645;28;20419;-70
2021/05/02 08:19:16;;;;;;;1.52;1.52;;;21.70;43.70;;;;;;4992161;28;21501;-69
2021/05/02 08:21:42;;;;;;;1.80;1.70;;;21.70;43.70;;;;;;5004159;28;20425;-69
2021/05/02 08:24:09;;;;;;;1.60;1.60;;;21.70;43.80;;;;;;4975655;28;20443;-70
2021/05/02 08:26:35;;;;;;;1.60;1.50;;;21.70;43.80;;;;;;5002970;28;20421;-70
2021/05/02 08:29:01;;;;;;;1.30;1.30;;;21.70;43.80;;;;;;4999486;28;20415;-70
2021/05/02 08:31:28;;;;;;;1.55;1.55;;;21.70;43.80;;;;;;5016245;28;20428;-70
2021/05/02 08:33:54;;;;;;;1.60;1.50;;;21.70;43.80;;;;;;5003683;28;20413;-69
2021/05/02 08:36:20;;;;;;;1.60;1.50;;;21.70;43.70;;;;;;5004332;28;21488;-68
2021/05/02 08:38:47;;;;;;;1.30;1.30;;;21.70;43.70;;;;;;5006302;28;23041;-70
2021/05/02 08:41:13;;;;;;;1.50;1.40;;;21.70;43.70;;;;;;5013343;28;20415;-70
2021/05/02 08:43:40;;;;;;;1.63;1.52;;;21.70;43.70;;;;;;5008632;28;20417;-70
2021/05/02 08:46:06;;;;;;;1.75;1.65;;;21.70;43.60;;;;;;5005353;28;20451;-69
2021/05/02 08:48:33;;;;;;;1.50;1.50;;;21.70;43.70;;;;;;5003301;28;20501;-69
2021/05/02 08:51:00;;;;;;;2.00;1.55;;;21.70;43.60;;;;;;5017387;28;20806;-69
2021/05/02 08:53:26;;;;;;;1.30;1.30;;;21.70;43.50;;;;;;5004956;28;20952;-70
2021/05/02 08:55:52;;;;;;;1.58;1.48;;;21.70;43.60;;;;;;5003905;28;20852;-69
2021/05/02 08:58:19;;;;;;;1.20;1.20;;;21.70;43.60;;;;;;5006398;28;20427;-70
2021/05/02 09:00:45;;;;;;;1.30;1.30;;;21.70;43.50;;;;;;5009779;28;21009;-70
2021/05/02 09:03:12;;;;;;;1.50;1.50;;;21.70;43.60;;;;;;5006508;28;20419;-70
2021/05/02 09:05:45;;;;;;;1.00;1.00;;;21.80;43.70;;;;;;5006558;28;20415;-69
2021/05/02 09:08:11;;;;;;;1.35;1.35;;;21.70;43.50;;;;;;5004848;28;20842;-70
2021/05/02 09:10:37;;;;;;;1.30;1.30;;;21.70;43.50;;;;;;5008017;28;20407;-70
2021/05/02 09:13:07;;;;;;;1.40;1.30;;;21.70;43.40;;;;;;4999562;28;20438;-69
2021/05/02 09:15:33;;;;;;;1.30;1.20;;;21.70;43.40;;;;;;5007686;28;20419;-70
2021/05/02 09:18:03;;;;;;;1.40;1.40;;;21.70;43.40;;;;;;5003553;28;20499;-69
2021/05/02 09:20:43;;;;;;;1.13;1.10;;;21.70;43.40;;;;;;5010743;28;20444;-69
2021/05/02 09:23:10;;;;;;;1.20;1.00;;;21.70;43.30;;;;;;4999322;28;20431;-70
2021/05/02 09:25:46;;;;;;;1.20;1.20;;;21.70;43.40;;;;;;5007373;28;20419;-70
2021/05/02 09:28:12;;;;;;;1.10;1.10;;;21.70;43.40;;;;;;5001847;28;21488;-70
2021/05/02 09:30:39;;;;;;;1.23;1.23;;;21.70;43.50;;;;;;4997483;28;20811;-70
2021/05/02 09:33:05;;;;;;;1.30;1.30;;;21.70;43.50;;;;;;5008568;28;20427;-70
2021/05/02 09:35:32;;;;;;;1.20;1.10;;;21.70;43.40;;;;;;5000367;28;20408;-70
2021/05/02 09:38:10;;;;;;;1.10;1.10;;;21.70;43.40;;;;;;4994432;28;20421;-69
2021/05/02 09:40:49;;;;;;;1.80;1.20;;;21.70;43.40;;;;;;4982243;28;20480;-70
2021/05/02 09:43:33;;;;;;;1.40;1.40;;;21.70;43.50;;;;;;5016144;28;20417;-70
2021/05/02 09:46:25;;;;;;;1.00;1.00;;;21.70;43.40;;;;;;5004832;28;20401;-69
2021/05/02 09:48:55;;;;;;;1.30;1.20;;;21.70;43.40;;;;;;5008065;28;20445;-70
2021/05/02 09:51:22;;;;;;;1.00;1.00;;;21.70;43.30;;;;;;4996769;28;20417;-68
2021/05/02 09:54:03;;;;;;;0.90;0.90;;;21.70;43.30;;;;;;5008095;28;20989;-70
2021/05/02 09:56:40;;;;;;;1.00;1.00;;;21.70;43.30;;;;;;5006964;28;20421;-70
2021/05/02 09:59:20;;;;;;;1.20;1.20;;;21.70;43.40;;;;;;5001561;28;20518;-70
2021/05/02 10:02:15;;;;;;;1.10;1.10;;;21.70;43.40;;;;;;5002287;28;20424;-72
2021/05/02 10:04:44;;;;;;;1.10;1.00;;;21.70;43.30;;;;;;5003205;28;20420;-69
2021/05/02 10:07:10;;;;;;;0.98;0.98;;;21.70;43.30;;;;;;5001790;28;20494;-69
2021/05/02 10:09:37;;;;;;;1.30;1.00;;;21.70;43.30;;;;;;5009430;28;20418;-70
2021/05/02 10:12:04;;;;;;;1.02;1.02;;;21.70;43.20;;;;;;5000760;28;20498;-69
2021/05/02 10:14:30;;;;;;;1.00;1.00;;;21.70;43.10;;;;;;5010579;28;20423;-69
2021/05/02 10:16:56;;;;;;;0.90;0.90;;;21.70;43.10;;;;;;5007937;28;20433;-70
2021/05/02 10:19:23;;;;;;;1.00;1.00;;;21.70;43.20;;;;;;5011191;28;20418;-69
2021/05/02 10:21:49;;;;;;;0.90;0.90;;;21.80;43.20;;;;;;5003852;28;20460;-70
2021/05/02 10:24:16;;;;;;;1.10;1.00;;;21.70;43.00;;;;;;5007765;28;20428;-71
2021/05/02 10:26:43;;;;;;;1.50;1.00;;;21.70;43.00;;;;;;5010406;28;20494;-70
2021/05/02 10:29:09;;;;;;;1.10;1.10;;;21.70;43.10;;;;;;5014592;28;21097;-68
2021/05/02 10:31:40;;;;;;;1.00;1.00;;;21.70;43.10;;;;;;5009074;28;20410;-70
2021/05/02 10:34:30;;;;;;;1.10;1.10;;;21.70;43.30;;;;;;5007811;28;20418;-70
2021/05/02 10:37:33;;;;;;;1.30;1.30;;;21.70;43.00;;;;;;5004779;28;20544;-70
2021/05/02 10:40:01;;;;;;;1.40;1.10;;;21.70;43.10;;;;;;5005829;28;20407;-71
2021/05/02 10:42:39;;;;;;;1.17;1.10;;;21.80;43.30;;;;;;5008801;28;20421;-70
2021/05/02 10:45:50;;;;;;;1.20;1.10;;;21.80;43.30;;;;;;5008417;28;20406;-69
2021/05/02 10:48:36;;;;;;;1.00;1.00;;;21.70;43.20;;;;;;4971410;28;20423;-71
2021/05/02 10:51:03;;;;;;;1.00;1.00;;;21.70;43.10;;;;;;5009299;28;20430;-69
2021/05/02 10:53:29;;;;;;;1.20;1.20;;;21.70;43.20;;;;;;5005251;28;20421;-70
2021/05/02 10:55:59;;;;;;;0.90;0.90;;;21.70;43.20;;;;;;5013617;28;20428;-70
2021/05/02 10:58:26;;;;;;;1.20;1.10;;;21.70;43.20;;;;;;5006156;28;20517;-70
2021/05/02 11:00:56;;;;;;;0.82;0.82;;;21.60;43.10;;;;;;5015042;28;20421;-70
2021/05/02 11:03:53;;;;;;;1.10;1.10;;;21.60;43.90;;;;;;5012270;28;20506;-70
2021/05/02 11:06:59;;;;;;;1.87;0.90;;;21.60;43.20;;;;;;5012726;28;20414;-68
2021/05/02 11:09:29;;;;;;;1.40;1.30;;;21.70;43.30;;;;;;5008086;28;20508;-70
2021/05/02 11:11:57;;;;;;;1.00;1.00;;;21.70;43.20;;;;;;5007838;28;20438;-69
2021/05/02 11:14:33;;;;;;;1.30;1.20;;;21.70;43.20;;;;;;5010092;28;20471;-70
2021/05/02 11:17:19;;;;;;;1.20;1.20;;;21.70;43.30;;;;;;5002909;28;20876;-70
2021/05/02 11:19:47;;;;;;;1.10;1.10;;;21.70;43.20;;;;;;5009827;28;21537;-70
2021/05/02 11:22:14;;;;;;;1.30;1.30;;;21.70;43.20;;;;;;5001157;28;20417;-70
2021/05/02 11:24:59;;;;;;;1.10;1.10;;;21.70;43.20;;;;;;4976814;28;20413;-70
2021/05/02 11:28:01;;;;;;;1.00;1.00;;;21.70;43.20;;;;;;5007106;28;20408;-70
2021/05/02 11:30:30;;;;;;;1.25;1.15;;;21.70;43.20;;;;;;5007135;28;20423;-70
2021/05/02 11:32:56;;;;;;;0.85;0.85;;;21.70;43.20;;;;;;5006279;28;20433;-70
2021/05/02 11:35:52;;;;;;;1.10;1.00;;;21.70;43.10;;;;;;5008467;28;21208;-69
2021/05/02 11:38:18;;;;;;;1.30;1.00;;;21.70;43.20;;;;;;5000102;28;20409;-70
2021/05/02 11:40:45;;;;;;;1.60;0.90;;;21.60;43.10;;;;;;5006509;28;20901;-70
2021/05/02 11:43:13;;;;;;;0.90;0.90;;;21.60;43.10;;;;;;5006568;28;20407;-70
2021/05/02 11:45:47;;;;;;;0.80;0.80;;;21.60;43.10;;;;;;5008039;28;20508;-70
2021/05/02 11:48:20;;;;;;;2.10;1.10;;;21.60;43.00;;;;;;5008249;28;20793;-70
2021/05/02 11:50:47;;;;;;;1.20;1.20;;;21.60;43.10;;;;;;4995650;28;20570;-69
2021/05/02 11:53:13;;;;;;;1.00;1.00;;;21.60;43.10;;;;;;5006857;28;20492;-70
2021/05/02 11:55:40;;;;;;;0.80;0.80;;;21.60;43.00;;;;;;5007769;28;20569;-70
2021/05/02 11:58:07;;;;;;;1.00;1.00;;;21.60;43.00;;;;;;5011291;28;21022;-69
2021/05/02 12:00:38;;;;;;;0.93;0.93;;;21.70;43.20;;;;;;5006076;28;20925;-70
2021/05/02 12:03:05;;;;;;;0.90;0.90;;;21.70;43.00;;;;;;5005849;28;20504;-69
2021/05/02 12:05:31;;;;;;;1.00;1.00;;;21.60;43.00;;;;;;5008142;28;20422;-70
2021/05/02 12:08:08;;;;;;;0.82;0.82;;;21.70;42.90;;;;;;5007443;28;20522;-70
2021/05/02 12:10:34;;;;;;;1.10;1.10;;;21.70;42.90;;;;;;5007214;28;20497;-69
2021/05/02 12:13:00;;;;;;;0.90;0.90;;;21.60;42.90;;;;;;5003432;28;20919;-69
2021/05/02 12:15:27;;;;;;;1.10;1.10;;;21.70;43.00;;;;;;5004710;28;20956;-70
2021/05/02 12:17:53;;;;;;;0.90;0.90;;;21.70;42.90;;;;;;5008696;28;20816;-69
2021/05/02 12:20:22;;;;;;;1.00;1.00;;;21.70;43.00;;;;;;5009156;28;20433;-69
2021/05/02 12:22:49;;;;;;;0.93;0.93;;;21.60;43.00;;;;;;4996326;28;20489;-69
2021/05/02 12:25:15;;;;;;;0.80;0.80;;;21.60;43.10;;;;;;5007581;28;20558;-70
2021/05/02 12:27:54;;;;;;;0.95;0.95;;;21.60;43.10;;;;;;5002879;28;20429;-70
2021/05/02 12:30:21;;;;;;;0.90;0.90;;;21.60;43.90;;;;;;5006260;28;20407;-70
2021/05/02 12:32:47;;;;;;;1.05;0.95;;;21.60;43.00;;;;;;5005745;28;20423;-70
2021/05/02 12:35:13;;;;;;;0.80;0.80;;;21.60;43.10;;;;;;5007198;28;20432;-70
2021/05/02 12:37:40;;;;;;;1.00;0.90;;;21.60;43.00;;;;;;5006165;28;20419;-70
2021/05/02 12:40:07;;;;;;;0.90;0.90;;;21.60;42.90;;;;;;5006382;28;20431;-69
2021/05/02 12:42:34;;;;;;;0.80;0.80;;;21.70;43.00;;;;;;5001839;28;20430;-70
2021/05/02 12:45:00;;;;;;;1.40;0.90;;;21.70;43.00;;;;;;5008190;28;20426;-70
2021/05/02 12:47:27;;;;;;;1.00;1.00;;;21.60;43.00;;;;;;5008554;28;20417;-69
2021/05/02 12:49:55;;;;;;;1.05;0.95;;;21.70;43.00;;;;;;5006573;28;20494;-70
2021/05/02 12:52:26;;;;;;;0.90;0.90;;;21.70;43.00;;;;;;5006569;28;20505;-70
2021/05/02 12:54:53;;;;;;;0.90;0.90;;;21.70;42.90;;;;;;5001723;28;20486;-70